createdAt,value
2023-02-24T00:00:33.992Z,35.20
2023-02-24T00:03:11.147Z,33.43
2023-02-24T00:05:44.680Z,33.47
2023-02-24T00:08:13.138Z,31.27
2023-02-24T00:10:41.770Z,28.80
2023-02-24T00:13:12.011Z,29.00
2023-02-24T00:15:40.509Z,27.27
2023-02-24T00:18:09.323Z,28.13
2023-02-24T00:20:37.742Z,26.17
2023-02-24T00:23:09.833Z,25.37
2023-02-24T00:25:38.232Z,22.83
2023-02-24T00:28:08.857Z,24.40
2023-02-24T00:30:37.310Z,23.13
2023-02-24T00:33:07.171Z,21.83
2023-02-24T00:35:35.801Z,18.30
2023-02-24T00:38:04.669Z,18.47
2023-02-24T00:40:37.342Z,16.50
2023-02-24T00:43:07.973Z,15.67
2023-02-24T00:45:39.219Z,15.77
2023-02-24T00:48:10.780Z,14.40
2023-02-24T00:50:40.178Z,14.23
2023-02-24T00:53:08.640Z,12.73
2023-02-24T00:55:38.505Z,12.40
2023-02-24T00:58:07.412Z,11.83
2023-02-24T01:00:37.591Z,12.03
2023-02-24T01:03:06.322Z,12.93
2023-02-24T01:05:37.553Z,11.77
2023-02-24T01:08:05.976Z,11.87
2023-02-24T01:10:35.312Z,11.30
2023-02-24T01:13:04.703Z,11.93
2023-02-24T01:15:33.091Z,11.93
2023-02-24T01:18:01.504Z,13.10
2023-02-24T01:20:30.498Z,13.17
2023-02-24T01:22:58.928Z,13.90
2023-02-24T01:25:31.405Z,14.30
2023-02-24T01:27:59.835Z,14.67
2023-02-24T01:30:31.314Z,14.53
2023-02-24T01:33:00.610Z,14.00
2023-02-24T01:35:29.464Z,14.97
2023-02-24T01:37:59.165Z,15.37
2023-02-24T01:40:27.761Z,14.77
2023-02-24T01:42:56.161Z,15.37
2023-02-24T01:45:26.017Z,13.67
2023-02-24T01:47:59.937Z,13.57
2023-02-24T01:50:28.832Z,14.37
2023-02-24T01:52:59.229Z,12.67
2023-02-24T01:55:32.188Z,11.70
2023-02-24T01:58:03.001Z,11.83
2023-02-24T02:00:38.405Z,12.50
2023-02-24T02:03:15.567Z,12.83
2023-02-24T02:05:45.382Z,12.27
2023-02-24T02:08:14.892Z,12.10
2023-02-24T02:10:45.264Z,13.53
2023-02-24T02:13:15.068Z,15.37
2023-02-24T02:15:48.720Z,19.83
2023-02-24T02:18:24.289Z,19.00
2023-02-24T02:21:12.142Z,18.87
2023-02-24T02:23:55.112Z,20.37
2023-02-24T02:26:47.605Z,21.47
2023-02-24T02:29:33.660Z,21.47
2023-02-24T02:32:23.857Z,23.13
2023-02-24T02:34:56.402Z,24.33
2023-02-24T02:37:28.917Z,26.13
2023-02-24T02:40:00.289Z,25.80
2023-02-24T02:42:30.323Z,28.17
2023-02-24T02:45:05.364Z,29.67
2023-02-24T02:47:37.611Z,30.20
2023-02-24T02:50:11.641Z,31.97
2023-02-24T02:52:42.350Z,31.77
2023-02-24T02:55:14.139Z,32.57
2023-02-24T02:57:47.221Z,35.27
2023-02-24T03:00:21.530Z,36.53
2023-02-24T03:02:51.485Z,39.60
2023-02-24T03:05:23.154Z,40.57
2023-02-24T03:07:54.774Z,40.17
2023-02-24T03:10:25.224Z,40.17
2023-02-24T03:12:55.333Z,40.13
2023-02-24T03:15:26.094Z,41.67
2023-02-24T03:17:56.774Z,41.40
2023-02-24T03:20:29.484Z,43.27
2023-02-24T03:23:02.453Z,39.47
2023-02-24T03:25:38.245Z,38.60
2023-02-24T03:28:10.808Z,38.33
2023-02-24T03:30:42.837Z,38.30
2023-02-24T03:33:16.775Z,35.07
2023-02-24T03:35:46.657Z,33.13
2023-02-24T03:38:15.233Z,31.00
2023-02-24T03:40:43.947Z,30.73
2023-02-24T03:43:16.966Z,30.93
2023-02-24T03:45:46.533Z,32.23
2023-02-24T03:48:16.038Z,33.67
2023-02-24T03:50:46.001Z,30.43
2023-02-24T03:53:29.352Z,31.50
2023-02-24T03:56:01.362Z,29.67
2023-02-24T03:58:33.172Z,32.03
2023-02-24T04:01:06.849Z,31.73
2023-02-24T04:03:36.712Z,34.47
2023-02-24T04:06:11.088Z,35.33
2023-02-24T04:08:41.506Z,33.90
2023-02-24T04:11:15.267Z,34.23
2023-02-24T04:13:47.038Z,36.30
2023-02-24T04:16:18.481Z,34.83
2023-02-24T04:18:49.638Z,36.53
2023-02-24T04:21:23.141Z,37.63
2023-02-24T04:23:51.750Z,37.23
2023-02-24T04:26:21.658Z,35.87
2023-02-24T04:28:50.783Z,38.00
2023-02-24T04:31:21.417Z,36.47
2023-02-24T04:33:50.519Z,36.67
2023-02-24T04:36:21.552Z,37.30
2023-02-24T04:38:50.349Z,37.57
2023-02-24T04:41:21.390Z,37.67
2023-02-24T04:43:50.930Z,37.07
2023-02-24T04:46:19.941Z,37.13
2023-02-24T04:48:48.519Z,36.07
2023-02-24T04:51:17.070Z,37.60
2023-02-24T04:53:46.851Z,36.47
2023-02-24T04:56:15.261Z,36.40
2023-02-24T04:58:46.448Z,37.33
2023-02-24T05:01:15.365Z,37.63
2023-02-24T05:03:43.868Z,37.67
2023-02-24T05:06:16.133Z,41.37
2023-02-24T05:08:45.024Z,40.73
2023-02-24T05:11:17.158Z,41.70
2023-02-24T05:13:46.946Z,39.47
2023-02-24T05:16:16.467Z,43.40
2023-02-24T05:18:45.625Z,43.37
2023-02-24T05:21:32.313Z,42.10
2023-02-24T05:24:06.510Z,42.87
2023-02-24T05:26:38.091Z,40.97
2023-02-24T05:29:07.666Z,42.43
2023-02-24T05:31:37.082Z,43.30
2023-02-24T05:34:06.540Z,41.63
2023-02-24T05:36:36.186Z,43.17
2023-02-24T05:39:07.772Z,42.67
2023-02-24T05:41:41.819Z,43.50
2023-02-24T05:44:12.545Z,42.90
2023-02-24T05:46:42.077Z,43.17
2023-02-24T05:49:14.404Z,42.73
2023-02-24T05:51:54.670Z,43.13
2023-02-24T05:54:24.350Z,42.83
2023-02-24T05:56:56.998Z,42.90
2023-02-24T05:59:25.674Z,44.77
2023-02-24T06:01:54.236Z,45.00
2023-02-24T06:04:39.229Z,45.07
2023-02-24T06:07:08.355Z,44.73
2023-02-24T06:09:40.200Z,44.77
2023-02-24T06:12:10.124Z,44.07
2023-02-24T06:14:38.773Z,44.87
2023-02-24T06:17:07.216Z,44.87
2023-02-24T06:19:35.625Z,46.03
2023-02-24T06:22:06.917Z,45.80
2023-02-24T06:24:35.641Z,44.87
2023-02-24T06:27:10.220Z,43.87
2023-02-24T06:29:40.261Z,42.23
2023-02-24T06:32:09.622Z,42.13
2023-02-24T06:34:38.565Z,43.30
2023-02-24T06:37:07.764Z,42.73
2023-02-24T06:39:36.974Z,41.50
2023-02-24T06:42:08.862Z,42.13
2023-02-24T06:44:39.446Z,43.20
2023-02-24T06:47:10.505Z,43.70
2023-02-24T06:49:38.893Z,44.17
2023-02-24T06:52:08.703Z,43.77
2023-02-24T06:54:37.145Z,40.63
2023-02-24T06:57:06.019Z,42.13
2023-02-24T06:59:34.572Z,41.47
2023-02-24T07:02:03.531Z,41.87
2023-02-24T07:04:43.601Z,42.10
2023-02-24T07:07:14.389Z,43.13
2023-02-24T07:09:45.449Z,41.27
2023-02-24T07:12:15.658Z,45.47
2023-02-24T07:14:44.163Z,46.53
2023-02-24T07:17:14.799Z,48.30
2023-02-24T07:19:45.318Z,47.97
2023-02-24T07:22:15.247Z,48.43
2023-02-24T07:24:46.425Z,45.60
2023-02-24T07:27:22.020Z,45.93
2023-02-24T07:29:52.972Z,46.27
2023-02-24T07:32:22.720Z,45.33
2023-02-24T07:34:53.065Z,47.07
2023-02-24T07:37:23.609Z,45.53
2023-02-24T07:39:52.453Z,47.40
2023-02-24T07:42:20.886Z,47.53
2023-02-24T07:44:49.602Z,47.50
2023-02-24T07:47:18.068Z,49.17
2023-02-24T07:49:46.513Z,46.37
2023-02-24T07:52:16.354Z,48.13
2023-02-24T07:54:44.806Z,47.07
2023-02-24T07:57:14.692Z,48.93
2023-02-24T07:59:47.179Z,36.70
2023-02-24T08:02:16.302Z,34.67
2023-02-24T08:04:50.204Z,46.57
2023-02-24T08:07:25.015Z,48.27
2023-02-24T08:10:24.191Z,50.17
2023-02-24T08:12:55.611Z,49.20
2023-02-24T08:15:25.228Z,32.50
2023-02-24T08:17:59.860Z,34.90
2023-02-24T08:20:30.028Z,40.93
2023-02-24T08:23:00.080Z,43.50
2023-02-24T08:25:35.989Z,26.83
2023-02-24T08:28:08.841Z,34.37
2023-02-24T08:30:45.289Z,39.37
2023-02-24T08:33:17.476Z,36.57
2023-02-24T08:35:46.337Z,24.20
2023-02-24T08:38:17.518Z,28.80
2023-02-24T08:40:54.563Z,29.63
2023-02-24T08:43:32.985Z,27.40
2023-02-24T08:46:03.824Z,24.33
2023-02-24T08:48:39.167Z,30.67
2023-02-24T08:51:09.753Z,33.67
2023-02-24T08:53:41.472Z,29.37
2023-02-24T08:56:11.597Z,33.30
2023-02-24T08:58:47.057Z,39.33
2023-02-24T09:01:20.098Z,44.27
2023-02-24T09:03:49.255Z,36.23
2023-02-24T09:06:18.338Z,40.37
2023-02-24T09:08:49.271Z,45.33
2023-02-24T09:11:17.718Z,41.20
2023-02-24T09:13:52.660Z,36.93
2023-02-24T09:16:23.456Z,43.47
2023-02-24T09:19:12.397Z,46.77
2023-02-24T09:22:13.280Z,49.40
2023-02-24T09:24:49.309Z,48.60
2023-02-24T09:27:17.912Z,49.70
2023-02-24T09:29:50.567Z,48.50
2023-02-24T09:32:19.262Z,48.80
2023-02-24T09:34:47.744Z,49.23
2023-02-24T09:37:25.946Z,48.23
2023-02-24T09:40:39.529Z,43.80
2023-02-24T09:43:17.605Z,43.53
2023-02-24T09:45:54.308Z,47.23
2023-02-24T09:48:43.624Z,47.20
2023-02-24T09:51:21.825Z,48.53
2023-02-24T09:53:53.676Z,47.97
2023-02-24T09:56:32.734Z,47.60
2023-02-24T09:59:12.657Z,45.17
2023-02-24T10:01:49.537Z,42.70
2023-02-24T10:04:27.456Z,44.93
2023-02-24T10:06:58.971Z,46.13
2023-02-24T10:09:33.576Z,47.70
2023-02-24T10:12:05.111Z,45.13
2023-02-24T10:14:43.819Z,43.30
2023-02-24T10:17:25.042Z,40.23
2023-02-24T10:20:01.051Z,40.87
2023-02-24T10:22:34.717Z,40.73
2023-02-24T10:25:12.011Z,40.23
2023-02-24T10:27:53.051Z,42.10
2023-02-24T10:30:41.282Z,40.17
2023-02-24T10:33:20.595Z,42.20
2023-02-24T10:35:50.312Z,43.83
2023-02-24T10:38:18.764Z,41.03
2023-02-24T10:40:52.674Z,42.87
2023-02-24T10:43:30.268Z,41.63
2023-02-24T10:46:06.269Z,40.43
2023-02-24T10:48:41.660Z,40.33
2023-02-24T10:51:19.810Z,37.43
2023-02-24T10:54:09.629Z,37.27
2023-02-24T10:56:55.369Z,42.33
2023-02-24T10:59:58.371Z,37.07
2023-02-24T11:02:32.943Z,39.83
2023-02-24T11:05:24.951Z,36.43
2023-02-24T11:07:55.852Z,39.67
2023-02-24T11:10:32.905Z,40.27
2023-02-24T11:13:20.814Z,38.13
2023-02-24T11:16:11.141Z,34.93
2023-02-24T11:18:40.323Z,33.13
2023-02-24T11:21:09.572Z,36.57
2023-02-24T11:23:40.107Z,41.37
2023-02-24T11:26:16.826Z,32.93
2023-02-24T11:28:56.861Z,30.27
2023-02-24T11:31:37.190Z,27.33
2023-02-24T11:34:08.653Z,26.10
2023-02-24T11:36:43.508Z,33.03
2023-02-24T11:39:22.589Z,31.57
2023-02-24T11:41:53.960Z,26.33
2023-02-24T11:44:25.859Z,23.87
2023-02-24T11:46:57.666Z,21.23
2023-02-24T11:49:29.555Z,28.33
2023-02-24T11:51:58.992Z,26.43
2023-02-24T11:54:28.192Z,23.80
2023-02-24T11:56:59.310Z,22.20
2023-02-24T11:59:32.549Z,21.80
2023-02-24T12:02:05.640Z,30.27
2023-02-24T12:04:36.104Z,29.37
2023-02-24T12:07:08.029Z,23.33
2023-02-24T12:09:38.577Z,21.40
2023-02-24T12:12:12.798Z,20.87
2023-02-24T12:14:43.747Z,27.93
2023-02-24T12:17:19.063Z,27.23
2023-02-24T12:19:57.097Z,23.87
2023-02-24T12:22:27.225Z,24.07
2023-02-24T12:24:56.126Z,30.33
2023-02-24T12:27:33.224Z,28.80
2023-02-24T12:30:09.374Z,22.57
2023-02-24T12:32:51.651Z,18.47
2023-02-24T12:35:24.741Z,26.17
2023-02-24T12:38:00.798Z,26.27
2023-02-24T12:40:39.126Z,20.97
2023-02-24T12:43:14.555Z,18.33
2023-02-24T12:45:47.828Z,28.83
2023-02-24T12:48:26.216Z,24.53
2023-02-24T12:50:58.754Z,20.80
2023-02-24T12:53:33.377Z,28.67
2023-02-24T12:56:06.292Z,27.67
2023-02-24T12:58:35.601Z,20.13
2023-02-24T13:01:09.200Z,19.03
2023-02-24T13:03:44.359Z,27.50
2023-02-24T13:06:16.847Z,26.07
2023-02-24T13:08:53.536Z,21.47
2023-02-24T13:11:28.762Z,18.43
2023-02-24T13:13:58.520Z,29.60
2023-02-24T13:16:31.393Z,28.20
2023-02-24T13:19:08.067Z,21.57
2023-02-24T13:21:36.485Z,17.57
2023-02-24T13:24:04.966Z,30.40
2023-02-24T13:26:34.075Z,26.07
2023-02-24T13:29:03.634Z,19.43
2023-02-24T13:31:42.336Z,17.03
2023-02-24T13:34:31.531Z,28.27
2023-02-24T13:37:00.293Z,23.70
2023-02-24T13:39:33.831Z,20.00
2023-02-24T13:42:07.167Z,18.30
2023-02-24T13:44:35.977Z,31.27
2023-02-24T13:47:17.330Z,27.33
2023-02-24T13:49:50.286Z,21.43
2023-02-24T13:52:22.351Z,19.50
2023-02-24T13:55:17.881Z,32.80
2023-02-24T13:57:53.681Z,26.27
2023-02-24T14:00:26.736Z,20.23
2023-02-24T14:02:55.286Z,16.93
2023-02-24T14:05:27.219Z,24.83
2023-02-24T14:07:56.371Z,28.03
2023-02-24T14:10:26.472Z,22.73
2023-02-24T14:13:04.188Z,19.83
2023-02-24T14:15:32.966Z,21.00
2023-02-24T14:18:02.485Z,34.20
2023-02-24T14:20:34.262Z,25.73
2023-02-24T14:23:04.016Z,22.17
2023-02-24T14:25:36.207Z,20.70
2023-02-24T14:28:04.673Z,28.50
2023-02-24T14:30:34.643Z,24.60
2023-02-24T14:33:03.513Z,20.13
2023-02-24T14:35:35.951Z,19.93
2023-02-24T14:38:04.970Z,32.47
2023-02-24T14:40:33.566Z,26.63
2023-02-24T14:43:03.795Z,22.37
2023-02-24T14:45:32.261Z,23.40
2023-02-24T14:48:00.665Z,31.67
2023-02-24T14:50:31.269Z,24.63
2023-02-24T14:53:03.818Z,22.83
2023-02-24T14:55:33.839Z,33.83
2023-02-24T14:58:03.618Z,28.83
2023-02-24T15:00:34.092Z,24.30
2023-02-24T15:03:06.714Z,38.97
2023-02-24T15:05:35.259Z,31.10
2023-02-24T15:08:05.202Z,24.27
2023-02-24T15:10:33.772Z,37.33
2023-02-24T15:13:09.849Z,31.27
2023-02-24T15:15:39.727Z,22.87
2023-02-24T15:18:12.474Z,23.87
2023-02-24T15:20:41.990Z,25.70
2023-02-24T15:23:26.551Z,23.43
2023-02-24T15:25:55.045Z,24.57
2023-02-24T15:28:25.577Z,30.90
2023-02-24T15:31:11.761Z,25.93
2023-02-24T15:33:41.287Z,21.40
2023-02-24T15:36:13.978Z,30.30
2023-02-24T15:38:44.628Z,27.70
2023-02-24T15:41:13.902Z,20.43
2023-02-24T15:43:47.737Z,24.50
2023-02-24T15:46:26.984Z,24.97
2023-02-24T15:48:57.508Z,17.20
2023-02-24T15:51:32.727Z,17.90
2023-02-24T15:54:03.778Z,21.97
2023-02-24T15:56:33.813Z,19.07
2023-02-24T15:59:02.672Z,22.07
2023-02-24T16:01:32.669Z,23.80
2023-02-24T16:04:01.182Z,19.57
2023-02-24T16:06:30.081Z,19.00
2023-02-24T16:08:59.497Z,22.00
2023-02-24T16:11:30.668Z,24.73
2023-02-24T16:14:00.046Z,22.67
2023-02-24T16:16:29.510Z,27.27
2023-02-24T16:18:57.983Z,29.07
2023-02-24T16:21:26.433Z,26.57
2023-02-24T16:23:54.895Z,27.37
2023-02-24T16:26:24.208Z,30.03
2023-02-24T16:28:56.564Z,33.60
2023-02-24T16:31:25.499Z,33.27
2023-02-24T16:33:55.854Z,31.70
2023-02-24T16:36:25.421Z,35.07
2023-02-24T16:38:54.369Z,34.33
2023-02-24T16:41:23.329Z,37.53
2023-02-24T16:43:52.146Z,35.93
2023-02-24T16:46:24.075Z,37.77
2023-02-24T16:48:54.032Z,38.90
2023-02-24T16:51:23.607Z,36.80
2023-02-24T16:53:52.076Z,36.00
2023-02-24T16:56:20.679Z,38.97
2023-02-24T16:58:50.713Z,40.07
2023-02-24T17:01:21.083Z,36.90
2023-02-24T17:03:51.848Z,37.93
2023-02-24T17:06:22.248Z,36.03
2023-02-24T17:08:51.141Z,33.83
2023-02-24T17:11:20.440Z,31.13
2023-02-24T17:13:48.866Z,30.50
2023-02-24T17:16:17.331Z,29.70
2023-02-24T17:18:45.776Z,29.77
2023-02-24T17:21:15.947Z,29.00
2023-02-24T17:23:44.365Z,29.77
2023-02-24T17:26:14.901Z,26.90
2023-02-24T17:28:43.323Z,29.20
2023-02-24T17:31:12.415Z,28.53
2023-02-24T17:33:41.512Z,25.93
2023-02-24T17:36:10.887Z,25.73
2023-02-24T17:38:40.705Z,28.40
2023-02-24T17:41:09.132Z,28.80
2023-02-24T17:43:39.516Z,27.50
2023-02-24T17:46:08.363Z,27.37
2023-02-24T17:48:36.870Z,27.67
2023-02-24T17:51:05.749Z,27.37
2023-02-24T17:53:34.178Z,28.63
2023-02-24T17:56:04.585Z,26.60
2023-02-24T17:58:33.090Z,25.47
2023-02-24T18:01:02.351Z,25.43
2023-02-24T18:03:31.045Z,24.90
2023-02-24T18:06:00.438Z,26.97
2023-02-24T18:08:29.751Z,26.83
2023-02-24T18:10:59.100Z,25.73
2023-02-24T18:13:28.971Z,24.63
2023-02-24T18:15:58.208Z,24.33
2023-02-24T18:18:27.087Z,24.70
2023-02-24T18:20:58.667Z,23.67
2023-02-24T18:23:27.221Z,22.87
2023-02-24T18:25:55.603Z,22.97
2023-02-24T18:28:23.989Z,22.30
2023-02-24T18:30:53.876Z,21.53
2023-02-24T18:33:22.472Z,23.00
2023-02-24T18:35:58.381Z,22.23
2023-02-24T18:38:26.835Z,21.83
2023-02-24T18:41:02.230Z,23.17
2023-02-24T18:43:31.180Z,24.43
2023-02-24T18:46:01.616Z,25.33
2023-02-24T18:48:31.296Z,23.97
2023-02-24T18:51:00.557Z,22.53
2023-02-24T18:53:30.058Z,23.67
2023-02-24T18:56:02.043Z,23.57
2023-02-24T18:58:30.779Z,24.37
2023-02-24T19:00:59.185Z,24.03
2023-02-24T19:03:29.065Z,23.47
2023-02-24T19:05:57.502Z,23.60
2023-02-24T19:08:26.773Z,24.03
2023-02-24T19:10:55.212Z,25.40
2023-02-24T19:13:24.044Z,25.73
2023-02-24T19:15:52.604Z,25.27
2023-02-24T19:18:21.058Z,26.57
2023-02-24T19:20:50.823Z,27.07
2023-02-24T19:23:19.261Z,26.83
2023-02-24T19:25:47.733Z,27.13
2023-02-24T19:28:16.646Z,25.53
2023-02-24T19:30:45.197Z,24.97
2023-02-24T19:33:13.682Z,27.03
2023-02-24T19:35:42.436Z,26.67
2023-02-24T19:38:14.377Z,26.90
2023-02-24T19:40:42.738Z,27.17
2023-02-24T19:43:11.751Z,25.90
2023-02-24T19:45:42.326Z,27.67
2023-02-24T19:48:10.831Z,26.10
2023-02-24T19:50:40.941Z,28.53
2023-02-24T19:53:09.730Z,27.10
2023-02-24T19:55:39.770Z,27.03
2023-02-24T19:58:08.198Z,26.10
2023-02-24T20:00:36.625Z,26.47
2023-02-24T20:03:05.002Z,28.10
2023-02-24T20:05:33.421Z,27.83
2023-02-24T20:08:01.835Z,27.87
2023-02-24T20:10:30.312Z,26.47
2023-02-24T20:13:00.130Z,27.60
2023-02-24T20:15:28.549Z,28.70
2023-02-24T20:17:59.143Z,27.90
2023-02-24T20:20:27.542Z,26.93
2023-02-24T20:22:55.956Z,26.70
2023-02-24T20:25:24.399Z,27.50
2023-02-24T20:27:52.808Z,28.13
2023-02-24T20:30:22.597Z,27.07
2023-02-24T20:32:51.028Z,27.70
2023-02-24T20:35:21.019Z,29.90
2023-02-24T20:37:49.487Z,29.00
2023-02-24T20:40:17.998Z,28.43
2023-02-24T20:42:46.447Z,28.67
2023-02-24T20:45:14.882Z,29.60
2023-02-24T20:47:44.837Z,29.17
2023-02-24T20:50:13.682Z,30.47
2023-02-24T20:52:42.096Z,29.80
2023-02-24T20:55:10.718Z,29.53
2023-02-24T20:57:39.112Z,31.57
2023-02-24T21:00:08.387Z,28.50
2023-02-24T21:02:36.841Z,30.37
2023-02-24T21:05:06.993Z,28.73
2023-02-24T21:07:36.949Z,28.80
2023-02-24T21:10:05.538Z,28.97
2023-02-24T21:12:33.995Z,28.67
2023-02-24T21:15:02.508Z,28.57
2023-02-24T21:17:30.961Z,29.13
2023-02-24T21:19:59.379Z,27.77
2023-02-24T21:22:31.241Z,28.83
2023-02-24T21:24:59.669Z,28.83
2023-02-24T21:27:28.161Z,29.93
2023-02-24T21:29:56.576Z,29.77
2023-02-24T21:32:25.026Z,29.70
2023-02-24T21:34:53.709Z,29.13
2023-02-24T21:37:22.149Z,29.50
2023-02-24T21:39:51.933Z,29.60
2023-02-24T21:42:22.207Z,31.00
2023-02-24T21:44:51.902Z,31.00
2023-02-24T21:47:20.747Z,29.70
2023-02-24T21:49:49.617Z,30.43
2023-02-24T21:52:18.045Z,31.40
2023-02-24T21:54:46.678Z,30.40
2023-02-24T21:57:17.106Z,30.30
2023-02-24T21:59:45.560Z,28.73
2023-02-24T22:02:15.609Z,29.40
2023-02-24T22:04:44.103Z,31.17
2023-02-24T22:07:12.790Z,30.27
2023-02-24T22:09:41.384Z,27.97
2023-02-24T22:12:09.783Z,29.23
2023-02-24T22:14:39.637Z,29.97
2023-02-24T22:17:08.036Z,28.63
2023-02-24T22:19:36.446Z,29.13
2023-02-24T22:22:04.887Z,30.07
2023-02-24T22:24:33.312Z,29.20
2023-02-24T22:27:01.744Z,29.70
2023-02-24T22:29:30.164Z,30.30
2023-02-24T22:32:00.242Z,29.43
2023-02-24T22:34:28.758Z,34.53
2023-02-24T22:36:57.245Z,30.30
2023-02-24T22:39:25.674Z,30.77
2023-02-24T22:41:54.122Z,30.50
2023-02-24T22:44:22.560Z,29.47
2023-02-24T22:46:51.126Z,29.40
2023-02-24T22:49:20.961Z,27.70
2023-02-24T22:51:49.363Z,29.23
2023-02-24T22:54:18.396Z,27.00
2023-02-24T22:56:46.771Z,28.50
2023-02-24T22:59:15.935Z,29.17
2023-02-24T23:01:44.695Z,27.87
2023-02-24T23:04:15.250Z,29.80
2023-02-24T23:06:45.159Z,27.57
2023-02-24T23:09:19.642Z,28.97
2023-02-24T23:11:48.404Z,29.27
2023-02-24T23:14:17.325Z,29.10
2023-02-24T23:16:47.345Z,30.17
2023-02-24T23:19:17.639Z,27.63
2023-02-24T23:21:49.723Z,28.40
2023-02-24T23:24:19.054Z,27.63
2023-02-24T23:26:48.207Z,27.63
2023-02-24T23:29:17.981Z,29.57
2023-02-24T23:31:47.757Z,30.97
2023-02-24T23:34:16.593Z,31.53
2023-02-24T23:36:46.101Z,31.53
2023-02-24T23:39:16.790Z,30.77
2023-02-24T23:41:45.487Z,32.43
2023-02-24T23:44:14.302Z,31.20
2023-02-24T23:46:43.193Z,35.43
2023-02-24T23:49:11.615Z,34.97
2023-02-24T23:51:47.959Z,35.33
2023-02-24T23:54:18.926Z,35.17
2023-02-24T23:56:47.500Z,32.77
2023-02-24T23:59:15.920Z,37.50
